sensor_id;sensor_type;location;lat;lon;timestamp;P1;durP1;ratioP1;P2;durP2;ratioP2
32876;SDS011;19226;51.600;8.034;2023-06-24T00:00:20;7.95;;;5.88;;
32876;SDS011;19226;51.600;8.034;2023-06-24T00:03:04;10.32;;;6.38;;
32876;SDS011;19226;51.600;8.034;2023-06-24T00:05:51;9.05;;;6.18;;
32876;SDS011;19226;51.600;8.034;2023-06-24T00:08:37;12.50;;;6.22;;
32876;SDS011;19226;51.600;8.034;2023-06-24T00:11:21;18.48;;;6.45;;
32876;SDS011;19226;51.600;8.034;2023-06-24T00:14:06;15.65;;;6.47;;
32876;SDS011;19226;51.600;8.034;2023-06-24T00:16:51;9.13;;;5.85;;
32876;SDS011;19226;51.600;8.034;2023-06-24T00:19:36;11.57;;;6.50;;
32876;SDS011;19226;51.600;8.034;2023-06-24T00:22:21;8.90;;;5.95;;
32876;SDS011;19226;51.600;8.034;2023-06-24T00:25:06;14.90;;;6.35;;
32876;SDS011;19226;51.600;8.034;2023-06-24T00:27:50;8.32;;;6.00;;
32876;SDS011;19226;51.600;8.034;2023-06-24T00:30:35;12.93;;;6.30;;
32876;SDS011;19226;51.600;8.034;2023-06-24T00:33:19;13.35;;;6.40;;
32876;SDS011;19226;51.600;8.034;2023-06-24T00:36:05;13.32;;;5.90;;
32876;SDS011;19226;51.600;8.034;2023-06-24T00:38:52;11.93;;;6.07;;
32876;SDS011;19226;51.600;8.034;2023-06-24T00:41:37;10.23;;;6.03;;
32876;SDS011;19226;51.600;8.034;2023-06-24T00:44:22;10.48;;;6.13;;
32876;SDS011;19226;51.600;8.034;2023-06-24T00:47:07;8.05;;;6.30;;
32876;SDS011;19226;51.600;8.034;2023-06-24T00:49:51;6.88;;;5.65;;
32876;SDS011;19226;51.600;8.034;2023-06-24T00:52:36;8.23;;;5.82;;
32876;SDS011;19226;51.600;8.034;2023-06-24T00:55:23;14.40;;;6.95;;
32876;SDS011;19226;51.600;8.034;2023-06-24T00:58:07;8.20;;;6.53;;
32876;SDS011;19226;51.600;8.034;2023-06-24T01:00:53;10.05;;;6.10;;
32876;SDS011;19226;51.600;8.034;2023-06-24T01:03:41;8.68;;;5.80;;
32876;SDS011;19226;51.600;8.034;2023-06-24T01:06:30;16.00;;;6.22;;
32876;SDS011;19226;51.600;8.034;2023-06-24T01:09:15;13.38;;;6.47;;
32876;SDS011;19226;51.600;8.034;2023-06-24T01:11:59;12.15;;;6.30;;
32876;SDS011;19226;51.600;8.034;2023-06-24T01:14:44;12.57;;;6.28;;
32876;SDS011;19226;51.600;8.034;2023-06-24T01:17:31;21.70;;;6.97;;
32876;SDS011;19226;51.600;8.034;2023-06-24T01:20:27;11.82;;;6.53;;
32876;SDS011;19226;51.600;8.034;2023-06-24T01:23:35;12.32;;;6.60;;
32876;SDS011;19226;51.600;8.034;2023-06-24T01:40:01;14.50;;;8.10;;
32876;SDS011;19226;51.600;8.034;2023-06-24T01:43:08;21.90;;;8.88;;
32876;SDS011;19226;51.600;8.034;2023-06-24T01:45:53;12.13;;;7.32;;
32876;SDS011;19226;51.600;8.034;2023-06-24T01:48:40;14.38;;;8.32;;
32876;SDS011;19226;51.600;8.034;2023-06-24T01:51:28;14.63;;;7.47;;
32876;SDS011;19226;51.600;8.034;2023-06-24T01:54:17;13.48;;;7.72;;
32876;SDS011;19226;51.600;8.034;2023-06-24T01:57:03;14.68;;;8.02;;
32876;SDS011;19226;51.600;8.034;2023-06-24T01:59:52;18.15;;;8.25;;
32876;SDS011;19226;51.600;8.034;2023-06-24T02:02:38;18.35;;;8.57;;
32876;SDS011;19226;51.600;8.034;2023-06-24T02:05:23;15.35;;;8.52;;
32876;SDS011;19226;51.600;8.034;2023-06-24T02:08:09;22.17;;;8.65;;
32876;SDS011;19226;51.600;8.034;2023-06-24T02:10:54;18.00;;;8.18;;
32876;SDS011;19226;51.600;8.034;2023-06-24T02:13:40;18.08;;;7.75;;
32876;SDS011;19226;51.600;8.034;2023-06-24T02:16:32;13.25;;;7.72;;
32876;SDS011;19226;51.600;8.034;2023-06-24T02:19:18;20.95;;;7.50;;
32876;SDS011;19226;51.600;8.034;2023-06-24T02:22:03;12.85;;;7.53;;
32876;SDS011;19226;51.600;8.034;2023-06-24T02:24:53;16.00;;;7.72;;
32876;SDS011;19226;51.600;8.034;2023-06-24T02:27:39;11.60;;;7.47;;
32876;SDS011;19226;51.600;8.034;2023-06-24T02:30:24;18.50;;;8.32;;
32876;SDS011;19226;51.600;8.034;2023-06-24T02:33:10;14.80;;;8.20;;
32876;SDS011;19226;51.600;8.034;2023-06-24T02:35:56;16.48;;;7.63;;
32876;SDS011;19226;51.600;8.034;2023-06-24T02:38:40;14.38;;;8.25;;
32876;SDS011;19226;51.600;8.034;2023-06-24T02:41:25;21.05;;;7.15;;
32876;SDS011;19226;51.600;8.034;2023-06-24T02:44:09;12.10;;;7.38;;
32876;SDS011;19226;51.600;8.034;2023-06-24T02:46:54;16.88;;;7.25;;
32876;SDS011;19226;51.600;8.034;2023-06-24T02:49:39;14.10;;;8.05;;
32876;SDS011;19226;51.600;8.034;2023-06-24T02:52:25;10.07;;;7.45;;
32876;SDS011;19226;51.600;8.034;2023-06-24T02:58:11;14.60;;;8.00;;
32876;SDS011;19226;51.600;8.034;2023-06-24T03:00:59;20.17;;;7.70;;
32876;SDS011;19226;51.600;8.034;2023-06-24T03:03:50;14.25;;;7.95;;
32876;SDS011;19226;51.600;8.034;2023-06-24T03:06:37;11.85;;;7.18;;
32876;SDS011;19226;51.600;8.034;2023-06-24T03:09:23;10.32;;;7.35;;
32876;SDS011;19226;51.600;8.034;2023-06-24T03:12:08;11.60;;;7.70;;
32876;SDS011;19226;51.600;8.034;2023-06-24T03:14:59;12.52;;;8.43;;
32876;SDS011;19226;51.600;8.034;2023-06-24T03:17:46;13.18;;;7.93;;
32876;SDS011;19226;51.600;8.034;2023-06-24T03:20:34;16.95;;;7.30;;
32876;SDS011;19226;51.600;8.034;2023-06-24T03:23:25;14.80;;;7.70;;
32876;SDS011;19226;51.600;8.034;2023-06-24T03:26:09;13.63;;;8.23;;
32876;SDS011;19226;51.600;8.034;2023-06-24T03:28:54;11.90;;;7.68;;
32876;SDS011;19226;51.600;8.034;2023-06-24T03:31:39;10.82;;;7.93;;
32876;SDS011;19226;51.600;8.034;2023-06-24T03:34:28;18.42;;;8.20;;
32876;SDS011;19226;51.600;8.034;2023-06-24T03:37:13;17.52;;;7.78;;
32876;SDS011;19226;51.600;8.034;2023-06-24T03:39:59;17.73;;;7.63;;
32876;SDS011;19226;51.600;8.034;2023-06-24T03:42:43;11.43;;;7.45;;
32876;SDS011;19226;51.600;8.034;2023-06-24T03:45:28;15.80;;;7.88;;
32876;SDS011;19226;51.600;8.034;2023-06-24T03:48:13;24.38;;;7.43;;
32876;SDS011;19226;51.600;8.034;2023-06-24T03:50:57;13.77;;;7.68;;
32876;SDS011;19226;51.600;8.034;2023-06-24T03:53:42;15.27;;;7.75;;
32876;SDS011;19226;51.600;8.034;2023-06-24T03:56:26;13.65;;;7.55;;
32876;SDS011;19226;51.600;8.034;2023-06-24T03:59:11;13.27;;;6.80;;
32876;SDS011;19226;51.600;8.034;2023-06-24T04:01:56;13.63;;;7.22;;
32876;SDS011;19226;51.600;8.034;2023-06-24T04:04:40;8.32;;;6.75;;
32876;SDS011;19226;51.600;8.034;2023-06-24T04:07:25;10.13;;;6.55;;
32876;SDS011;19226;51.600;8.034;2023-06-24T04:10:14;12.68;;;7.15;;
32876;SDS011;19226;51.600;8.034;2023-06-24T04:13:02;9.33;;;7.03;;
32876;SDS011;19226;51.600;8.034;2023-06-24T04:15:47;12.10;;;6.88;;
32876;SDS011;19226;51.600;8.034;2023-06-24T04:18:31;17.92;;;7.90;;
32876;SDS011;19226;51.600;8.034;2023-06-24T04:21:16;13.93;;;7.22;;
32876;SDS011;19226;51.600;8.034;2023-06-24T04:24:00;11.45;;;6.57;;
32876;SDS011;19226;51.600;8.034;2023-06-24T04:26:46;17.70;;;7.65;;
32876;SDS011;19226;51.600;8.034;2023-06-24T04:29:31;9.82;;;6.68;;
32876;SDS011;19226;51.600;8.034;2023-06-24T04:32:15;13.43;;;6.60;;
32876;SDS011;19226;51.600;8.034;2023-06-24T04:35:00;15.43;;;7.35;;
32876;SDS011;19226;51.600;8.034;2023-06-24T04:37:45;12.25;;;7.07;;
32876;SDS011;19226;51.600;8.034;2023-06-24T04:40:30;13.40;;;6.57;;
32876;SDS011;19226;51.600;8.034;2023-06-24T04:43:15;12.57;;;6.35;;
32876;SDS011;19226;51.600;8.034;2023-06-24T04:45:59;9.57;;;6.00;;
32876;SDS011;19226;51.600;8.034;2023-06-24T04:48:44;15.63;;;7.25;;
32876;SDS011;19226;51.600;8.034;2023-06-24T04:51:28;9.77;;;6.10;;
32876;SDS011;19226;51.600;8.034;2023-06-24T04:54:13;7.03;;;6.28;;
32876;SDS011;19226;51.600;8.034;2023-06-24T04:56:58;9.63;;;6.20;;
32876;SDS011;19226;51.600;8.034;2023-06-24T04:59:42;21.48;;;6.05;;
32876;SDS011;19226;51.600;8.034;2023-06-24T05:02:27;10.10;;;6.57;;
32876;SDS011;19226;51.600;8.034;2023-06-24T05:05:11;12.00;;;6.20;;
32876;SDS011;19226;51.600;8.034;2023-06-24T05:07:56;8.82;;;5.97;;
32876;SDS011;19226;51.600;8.034;2023-06-24T05:10:40;12.13;;;6.25;;
32876;SDS011;19226;51.600;8.034;2023-06-24T05:13:26;12.65;;;6.00;;
32876;SDS011;19226;51.600;8.034;2023-06-24T05:16:11;9.00;;;6.50;;
32876;SDS011;19226;51.600;8.034;2023-06-24T05:18:55;12.55;;;5.97;;
32876;SDS011;19226;51.600;8.034;2023-06-24T05:21:40;16.48;;;6.38;;
32876;SDS011;19226;51.600;8.034;2023-06-24T05:24:25;11.23;;;6.00;;
32876;SDS011;19226;51.600;8.034;2023-06-24T05:27:10;10.77;;;5.80;;
32876;SDS011;19226;51.600;8.034;2023-06-24T05:29:55;11.43;;;5.82;;
32876;SDS011;19226;51.600;8.034;2023-06-24T05:32:39;9.57;;;6.28;;
32876;SDS011;19226;51.600;8.034;2023-06-24T05:35:24;9.75;;;6.18;;
32876;SDS011;19226;51.600;8.034;2023-06-24T05:38:09;9.88;;;5.75;;
32876;SDS011;19226;51.600;8.034;2023-06-24T05:40:53;8.55;;;5.65;;
32876;SDS011;19226;51.600;8.034;2023-06-24T05:43:38;10.20;;;5.85;;
32876;SDS011;19226;51.600;8.034;2023-06-24T05:46:24;9.93;;;5.80;;
32876;SDS011;19226;51.600;8.034;2023-06-24T05:49:08;7.13;;;5.80;;
32876;SDS011;19226;51.600;8.034;2023-06-24T05:51:53;14.30;;;5.57;;
32876;SDS011;19226;51.600;8.034;2023-06-24T05:54:37;8.13;;;5.30;;
32876;SDS011;19226;51.600;8.034;2023-06-24T05:57:22;16.05;;;6.43;;
32876;SDS011;19226;51.600;8.034;2023-06-24T06:00:07;9.23;;;5.43;;
32876;SDS011;19226;51.600;8.034;2023-06-24T06:03:00;8.45;;;6.13;;
32876;SDS011;19226;51.600;8.034;2023-06-24T06:05:44;8.15;;;5.30;;
32876;SDS011;19226;51.600;8.034;2023-06-24T06:08:29;8.35;;;5.30;;
32876;SDS011;19226;51.600;8.034;2023-06-24T06:11:13;11.65;;;5.32;;
32876;SDS011;19226;51.600;8.034;2023-06-24T06:13:58;6.90;;;5.22;;
32876;SDS011;19226;51.600;8.034;2023-06-24T06:16:42;7.97;;;5.15;;
32876;SDS011;19226;51.600;8.034;2023-06-24T06:19:27;7.85;;;5.20;;
32876;SDS011;19226;51.600;8.034;2023-06-24T06:22:12;6.13;;;4.55;;
32876;SDS011;19226;51.600;8.034;2023-06-24T06:24:57;9.10;;;4.68;;
32876;SDS011;19226;51.600;8.034;2023-06-24T06:27:42;6.60;;;5.38;;
32876;SDS011;19226;51.600;8.034;2023-06-24T06:30:27;5.50;;;5.00;;
32876;SDS011;19226;51.600;8.034;2023-06-24T06:33:11;7.60;;;5.20;;
32876;SDS011;19226;51.600;8.034;2023-06-24T06:35:56;5.93;;;5.05;;
32876;SDS011;19226;51.600;8.034;2023-06-24T06:38:40;6.25;;;4.70;;
32876;SDS011;19226;51.600;8.034;2023-06-24T06:41:25;13.80;;;4.65;;
32876;SDS011;19226;51.600;8.034;2023-06-24T06:44:11;6.30;;;4.72;;
32876;SDS011;19226;51.600;8.034;2023-06-24T06:46:55;5.72;;;4.82;;
32876;SDS011;19226;51.600;8.034;2023-06-24T06:49:40;8.98;;;5.32;;
32876;SDS011;19226;51.600;8.034;2023-06-24T06:52:24;9.23;;;5.00;;
32876;SDS011;19226;51.600;8.034;2023-06-24T06:55:09;5.88;;;4.53;;
32876;SDS011;19226;51.600;8.034;2023-06-24T06:57:53;4.82;;;4.32;;
32876;SDS011;19226;51.600;8.034;2023-06-24T07:00:39;6.75;;;4.22;;
32876;SDS011;19226;51.600;8.034;2023-06-24T07:03:23;9.48;;;4.40;;
32876;SDS011;19226;51.600;8.034;2023-06-24T07:06:09;5.47;;;4.97;;
32876;SDS011;19226;51.600;8.034;2023-06-24T07:08:54;7.32;;;4.65;;
32876;SDS011;19226;51.600;8.034;2023-06-24T07:11:38;5.57;;;4.50;;
32876;SDS011;19226;51.600;8.034;2023-06-24T07:14:23;11.02;;;4.90;;
32876;SDS011;19226;51.600;8.034;2023-06-24T07:17:07;8.55;;;4.85;;
32876;SDS011;19226;51.600;8.034;2023-06-24T07:19:52;9.32;;;4.40;;
32876;SDS011;19226;51.600;8.034;2023-06-24T07:22:36;6.60;;;4.85;;
32876;SDS011;19226;51.600;8.034;2023-06-24T07:25:21;6.35;;;4.68;;
32876;SDS011;19226;51.600;8.034;2023-06-24T07:28:06;6.03;;;4.40;;
32876;SDS011;19226;51.600;8.034;2023-06-24T07:30:50;7.30;;;3.85;;
32876;SDS011;19226;51.600;8.034;2023-06-24T07:33:35;5.03;;;4.38;;
32876;SDS011;19226;51.600;8.034;2023-06-24T07:36:20;9.90;;;4.88;;
32876;SDS011;19226;51.600;8.034;2023-06-24T07:39:04;7.40;;;4.47;;
32876;SDS011;19226;51.600;8.034;2023-06-24T07:41:49;4.75;;;3.88;;
32876;SDS011;19226;51.600;8.034;2023-06-24T07:44:33;5.03;;;4.40;;
32876;SDS011;19226;51.600;8.034;2023-06-24T07:47:20;6.90;;;4.30;;
32876;SDS011;19226;51.600;8.034;2023-06-24T07:50:05;4.82;;;3.80;;
32876;SDS011;19226;51.600;8.034;2023-06-24T07:52:50;6.55;;;4.45;;
32876;SDS011;19226;51.600;8.034;2023-06-24T07:55:34;6.70;;;4.50;;
32876;SDS011;19226;51.600;8.034;2023-06-24T07:58:19;5.05;;;4.22;;
32876;SDS011;19226;51.600;8.034;2023-06-24T08:01:04;6.40;;;4.25;;
32876;SDS011;19226;51.600;8.034;2023-06-24T08:03:49;5.43;;;4.93;;
32876;SDS011;19226;51.600;8.034;2023-06-24T08:06:33;4.80;;;4.15;;
32876;SDS011;19226;51.600;8.034;2023-06-24T08:09:18;7.88;;;4.22;;
32876;SDS011;19226;51.600;8.034;2023-06-24T08:12:02;5.00;;;4.45;;
32876;SDS011;19226;51.600;8.034;2023-06-24T08:14:47;6.38;;;3.97;;
32876;SDS011;19226;51.600;8.034;2023-06-24T08:17:31;6.30;;;4.18;;
32876;SDS011;19226;51.600;8.034;2023-06-24T08:20:16;5.78;;;4.30;;
32876;SDS011;19226;51.600;8.034;2023-06-24T08:23:01;7.80;;;4.82;;
32876;SDS011;19226;51.600;8.034;2023-06-24T08:25:45;9.75;;;4.15;;
32876;SDS011;19226;51.600;8.034;2023-06-24T08:28:29;5.50;;;4.57;;
32876;SDS011;19226;51.600;8.034;2023-06-24T08:31:14;4.88;;;3.72;;
32876;SDS011;19226;51.600;8.034;2023-06-24T08:33:59;5.07;;;3.42;;
32876;SDS011;19226;51.600;8.034;2023-06-24T08:36:45;5.95;;;3.78;;
32876;SDS011;19226;51.600;8.034;2023-06-24T08:39:30;8.05;;;3.58;;
32876;SDS011;19226;51.600;8.034;2023-06-24T08:42:15;4.75;;;3.53;;
32876;SDS011;19226;51.600;8.034;2023-06-24T08:44:59;4.22;;;3.50;;
32876;SDS011;19226;51.600;8.034;2023-06-24T08:47:44;4.40;;;3.17;;
32876;SDS011;19226;51.600;8.034;2023-06-24T08:50:33;4.40;;;3.58;;
32876;SDS011;19226;51.600;8.034;2023-06-24T08:53:20;11.15;;;3.60;;
32876;SDS011;19226;51.600;8.034;2023-06-24T08:56:05;5.40;;;3.47;;
32876;SDS011;19226;51.600;8.034;2023-06-24T08:58:50;4.45;;;3.55;;
32876;SDS011;19226;51.600;8.034;2023-06-24T09:01:34;5.78;;;3.47;;
32876;SDS011;19226;51.600;8.034;2023-06-24T09:04:19;5.85;;;3.40;;
32876;SDS011;19226;51.600;8.034;2023-06-24T09:07:04;5.20;;;3.65;;
32876;SDS011;19226;51.600;8.034;2023-06-24T09:09:48;5.60;;;3.50;;
32876;SDS011;19226;51.600;8.034;2023-06-24T09:12:34;7.40;;;3.33;;
32876;SDS011;19226;51.600;8.034;2023-06-24T09:15:19;5.60;;;3.63;;
32876;SDS011;19226;51.600;8.034;2023-06-24T09:18:04;4.93;;;3.10;;
32876;SDS011;19226;51.600;8.034;2023-06-24T09:20:49;4.38;;;3.70;;
32876;SDS011;19226;51.600;8.034;2023-06-24T09:23:36;4.07;;;3.60;;
32876;SDS011;19226;51.600;8.034;2023-06-24T09:26:24;4.15;;;3.75;;
32876;SDS011;19226;51.600;8.034;2023-06-24T09:31:55;5.15;;;3.67;;
32876;SDS011;19226;51.600;8.034;2023-06-24T09:34:41;4.28;;;3.45;;
32876;SDS011;19226;51.600;8.034;2023-06-24T09:37:27;3.88;;;3.40;;
32876;SDS011;19226;51.600;8.034;2023-06-24T09:40:14;7.97;;;4.47;;
32876;SDS011;19226;51.600;8.034;2023-06-24T09:42:59;5.60;;;4.10;;
32876;SDS011;19226;51.600;8.034;2023-06-24T09:45:48;8.80;;;4.88;;
32876;SDS011;19226;51.600;8.034;2023-06-24T09:48:33;6.05;;;4.05;;
32876;SDS011;19226;51.600;8.034;2023-06-24T09:51:18;8.20;;;3.55;;
32876;SDS011;19226;51.600;8.034;2023-06-24T09:54:06;7.35;;;4.75;;
32876;SDS011;19226;51.600;8.034;2023-06-24T09:56:52;4.72;;;4.20;;
32876;SDS011;19226;51.600;8.034;2023-06-24T09:59:38;4.90;;;4.50;;
32876;SDS011;19226;51.600;8.034;2023-06-24T10:02:24;6.45;;;4.57;;
32876;SDS011;19226;51.600;8.034;2023-06-24T10:05:09;5.80;;;4.75;;
32876;SDS011;19226;51.600;8.034;2023-06-24T10:07:53;6.30;;;4.82;;
32876;SDS011;19226;51.600;8.034;2023-06-24T10:10:38;6.18;;;4.68;;
32876;SDS011;19226;51.600;8.034;2023-06-24T10:13:22;5.38;;;4.10;;
32876;SDS011;19226;51.600;8.034;2023-06-24T10:16:07;13.27;;;4.25;;
32876;SDS011;19226;51.600;8.034;2023-06-24T10:18:52;8.18;;;4.68;;
32876;SDS011;19226;51.600;8.034;2023-06-24T10:21:51;5.30;;;3.65;;
32876;SDS011;19226;51.600;8.034;2023-06-24T10:24:41;7.28;;;4.40;;
32876;SDS011;19226;51.600;8.034;2023-06-24T10:30:21;11.30;;;4.47;;
32876;SDS011;19226;51.600;8.034;2023-06-24T10:33:09;8.55;;;4.15;;
32876;SDS011;19226;51.600;8.034;2023-06-24T10:35:54;7.00;;;4.03;;
32876;SDS011;19226;51.600;8.034;2023-06-24T10:38:38;4.38;;;3.80;;
32876;SDS011;19226;51.600;8.034;2023-06-24T10:41:23;5.22;;;4.00;;
32876;SDS011;19226;51.600;8.034;2023-06-24T10:44:15;12.35;;;3.60;;
32876;SDS011;19226;51.600;8.034;2023-06-24T10:47:00;3.83;;;3.42;;
32876;SDS011;19226;51.600;8.034;2023-06-24T10:49:45;7.90;;;3.15;;
32876;SDS011;19226;51.600;8.034;2023-06-24T10:52:30;5.10;;;4.13;;
32876;SDS011;19226;51.600;8.034;2023-06-24T10:55:15;5.00;;;4.50;;
32876;SDS011;19226;51.600;8.034;2023-06-24T10:58:08;4.18;;;3.80;;
32876;SDS011;19226;51.600;8.034;2023-06-24T11:01:05;6.63;;;3.88;;
32876;SDS011;19226;51.600;8.034;2023-06-24T11:03:51;8.05;;;3.70;;
32876;SDS011;19226;51.600;8.034;2023-06-24T11:06:35;3.95;;;3.55;;
32876;SDS011;19226;51.600;8.034;2023-06-24T11:09:20;6.55;;;3.72;;
32876;SDS011;19226;51.600;8.034;2023-06-24T11:12:05;9.73;;;4.10;;
32876;SDS011;19226;51.600;8.034;2023-06-24T11:14:49;6.95;;;3.38;;
32876;SDS011;19226;51.600;8.034;2023-06-24T11:17:34;5.65;;;4.13;;
32876;SDS011;19226;51.600;8.034;2023-06-24T11:20:19;4.93;;;3.92;;
32876;SDS011;19226;51.600;8.034;2023-06-24T11:23:08;4.53;;;3.58;;
32876;SDS011;19226;51.600;8.034;2023-06-24T11:25:56;4.93;;;3.80;;
32876;SDS011;19226;51.600;8.034;2023-06-24T11:28:47;15.13;;;4.10;;
32876;SDS011;19226;51.600;8.034;2023-06-24T11:31:33;6.35;;;4.20;;
32876;SDS011;19226;51.600;8.034;2023-06-24T11:34:18;5.35;;;4.00;;
32876;SDS011;19226;51.600;8.034;2023-06-24T11:37:12;6.20;;;4.53;;
32876;SDS011;19226;51.600;8.034;2023-06-24T11:40:04;4.13;;;3.75;;
32876;SDS011;19226;51.600;8.034;2023-06-24T11:42:52;6.05;;;3.83;;
32876;SDS011;19226;51.600;8.034;2023-06-24T11:45:37;10.27;;;3.92;;
32876;SDS011;19226;51.600;8.034;2023-06-24T11:48:22;6.45;;;3.35;;
32876;SDS011;19226;51.600;8.034;2023-06-24T11:53:58;4.55;;;3.58;;
32876;SDS011;19226;51.600;8.034;2023-06-24T11:56:48;6.40;;;3.50;;
32876;SDS011;19226;51.600;8.034;2023-06-24T11:59:34;5.70;;;3.30;;
32876;SDS011;19226;51.600;8.034;2023-06-24T12:02:18;6.55;;;4.20;;
32876;SDS011;19226;51.600;8.034;2023-06-24T12:05:03;3.72;;;3.30;;
32876;SDS011;19226;51.600;8.034;2023-06-24T12:07:48;4.30;;;3.78;;
32876;SDS011;19226;51.600;8.034;2023-06-24T12:10:33;6.20;;;3.78;;
32876;SDS011;19226;51.600;8.034;2023-06-24T12:13:18;5.15;;;3.70;;
32876;SDS011;19226;51.600;8.034;2023-06-24T12:16:02;4.18;;;3.63;;
32876;SDS011;19226;51.600;8.034;2023-06-24T12:18:47;5.70;;;3.88;;
32876;SDS011;19226;51.600;8.034;2023-06-24T12:21:31;4.00;;;3.38;;
32876;SDS011;19226;51.600;8.034;2023-06-24T12:24:16;6.38;;;3.30;;
32876;SDS011;19226;51.600;8.034;2023-06-24T12:27:01;3.92;;;3.20;;
32876;SDS011;19226;51.600;8.034;2023-06-24T12:29:45;6.47;;;4.15;;
32876;SDS011;19226;51.600;8.034;2023-06-24T12:32:30;4.28;;;3.67;;
32876;SDS011;19226;51.600;8.034;2023-06-24T12:35:14;3.13;;;2.85;;
32876;SDS011;19226;51.600;8.034;2023-06-24T12:37:59;4.10;;;3.58;;
32876;SDS011;19226;51.600;8.034;2023-06-24T12:40:43;4.40;;;3.63;;
32876;SDS011;19226;51.600;8.034;2023-06-24T12:43:28;3.28;;;3.00;;
32876;SDS011;19226;51.600;8.034;2023-06-24T12:46:13;3.40;;;3.05;;
32876;SDS011;19226;51.600;8.034;2023-06-24T12:48:57;5.30;;;2.85;;
32876;SDS011;19226;51.600;8.034;2023-06-24T12:51:42;2.97;;;2.67;;
32876;SDS011;19226;51.600;8.034;2023-06-24T12:54:26;3.30;;;3.00;;
32876;SDS011;19226;51.600;8.034;2023-06-24T12:57:10;4.97;;;3.25;;
32876;SDS011;19226;51.600;8.034;2023-06-24T12:59:55;6.03;;;3.80;;
32876;SDS011;19226;51.600;8.034;2023-06-24T13:02:39;3.85;;;3.00;;
32876;SDS011;19226;51.600;8.034;2023-06-24T13:05:24;4.93;;;2.60;;
32876;SDS011;19226;51.600;8.034;2023-06-24T13:08:09;3.67;;;3.30;;
32876;SDS011;19226;51.600;8.034;2023-06-24T13:10:54;5.43;;;2.78;;
32876;SDS011;19226;51.600;8.034;2023-06-24T13:13:39;16.73;;;3.30;;
32876;SDS011;19226;51.600;8.034;2023-06-24T13:16:23;5.50;;;2.70;;
32876;SDS011;19226;51.600;8.034;2023-06-24T13:19:08;8.07;;;2.92;;
32876;SDS011;19226;51.600;8.034;2023-06-24T13:21:52;3.38;;;3.08;;
32876;SDS011;19226;51.600;8.034;2023-06-24T13:24:37;5.32;;;2.33;;
32876;SDS011;19226;51.600;8.034;2023-06-24T13:27:22;3.38;;;2.90;;
32876;SDS011;19226;51.600;8.034;2023-06-24T13:30:07;3.30;;;2.53;;
32876;SDS011;19226;51.600;8.034;2023-06-24T13:32:51;8.05;;;2.92;;
32876;SDS011;19226;51.600;8.034;2023-06-24T13:35:36;5.80;;;2.67;;
32876;SDS011;19226;51.600;8.034;2023-06-24T13:38:20;3.67;;;3.00;;
32876;SDS011;19226;51.600;8.034;2023-06-24T13:41:05;3.00;;;2.70;;
32876;SDS011;19226;51.600;8.034;2023-06-24T13:43:49;4.55;;;3.05;;
32876;SDS011;19226;51.600;8.034;2023-06-24T13:46:34;2.90;;;2.33;;
32876;SDS011;19226;51.600;8.034;2023-06-24T13:49:19;2.63;;;2.40;;
32876;SDS011;19226;51.600;8.034;2023-06-24T13:52:04;4.72;;;2.20;;
32876;SDS011;19226;51.600;8.034;2023-06-24T13:54:49;2.90;;;2.58;;
32876;SDS011;19226;51.600;8.034;2023-06-24T13:57:34;3.33;;;2.45;;
32876;SDS011;19226;51.600;8.034;2023-06-24T14:00:19;3.08;;;2.40;;
32876;SDS011;19226;51.600;8.034;2023-06-24T14:03:03;4.97;;;2.58;;
32876;SDS011;19226;51.600;8.034;2023-06-24T14:05:48;2.33;;;2.13;;
32876;SDS011;19226;51.600;8.034;2023-06-24T14:08:32;2.75;;;2.55;;
32876;SDS011;19226;51.600;8.034;2023-06-24T14:11:17;4.50;;;2.80;;
32876;SDS011;19226;51.600;8.034;2023-06-24T14:14:02;13.43;;;3.60;;
32876;SDS011;19226;51.600;8.034;2023-06-24T14:16:47;3.05;;;2.40;;
32876;SDS011;19226;51.600;8.034;2023-06-24T14:19:39;3.75;;;2.65;;
32876;SDS011;19226;51.600;8.034;2023-06-24T14:22:23;5.57;;;2.40;;
32876;SDS011;19226;51.600;8.034;2023-06-24T14:25:10;4.20;;;2.40;;
32876;SDS011;19226;51.600;8.034;2023-06-24T14:27:55;3.33;;;2.22;;
32876;SDS011;19226;51.600;8.034;2023-06-24T14:30:39;5.28;;;2.35;;
32876;SDS011;19226;51.600;8.034;2023-06-24T14:33:25;8.10;;;2.42;;
32876;SDS011;19226;51.600;8.034;2023-06-24T14:36:10;2.65;;;2.35;;
32876;SDS011;19226;51.600;8.034;2023-06-24T14:38:58;2.80;;;2.30;;
32876;SDS011;19226;51.600;8.034;2023-06-24T14:41:43;3.22;;;2.22;;
32876;SDS011;19226;51.600;8.034;2023-06-24T14:44:28;2.65;;;2.42;;
32876;SDS011;19226;51.600;8.034;2023-06-24T14:47:12;3.47;;;2.28;;
32876;SDS011;19226;51.600;8.034;2023-06-24T14:49:57;4.57;;;2.47;;
32876;SDS011;19226;51.600;8.034;2023-06-24T14:52:42;3.65;;;2.35;;
32876;SDS011;19226;51.600;8.034;2023-06-24T14:55:26;4.85;;;2.35;;
32876;SDS011;19226;51.600;8.034;2023-06-24T14:58:11;2.20;;;2.00;;
32876;SDS011;19226;51.600;8.034;2023-06-24T15:00:55;3.83;;;2.35;;
32876;SDS011;19226;51.600;8.034;2023-06-24T15:03:40;4.57;;;2.25;;
32876;SDS011;19226;51.600;8.034;2023-06-24T15:06:25;2.30;;;2.10;;
32876;SDS011;19226;51.600;8.034;2023-06-24T15:09:09;2.47;;;2.28;;
32876;SDS011;19226;51.600;8.034;2023-06-24T15:11:54;6.40;;;2.17;;
32876;SDS011;19226;51.600;8.034;2023-06-24T15:14:38;3.45;;;1.90;;
32876;SDS011;19226;51.600;8.034;2023-06-24T15:17:23;2.35;;;2.03;;
32876;SDS011;19226;51.600;8.034;2023-06-24T15:20:07;2.83;;;2.03;;
32876;SDS011;19226;51.600;8.034;2023-06-24T15:22:55;2.97;;;2.10;;
32876;SDS011;19226;51.600;8.034;2023-06-24T15:25:41;3.35;;;1.80;;
32876;SDS011;19226;51.600;8.034;2023-06-24T15:28:25;2.63;;;2.40;;
32876;SDS011;19226;51.600;8.034;2023-06-24T15:31:10;2.50;;;2.30;;
32876;SDS011;19226;51.600;8.034;2023-06-24T15:33:54;3.13;;;2.13;;
32876;SDS011;19226;51.600;8.034;2023-06-24T15:36:39;2.08;;;1.83;;
32876;SDS011;19226;51.600;8.034;2023-06-24T15:39:24;2.40;;;1.88;;
32876;SDS011;19226;51.600;8.034;2023-06-24T15:42:08;2.80;;;2.10;;
32876;SDS011;19226;51.600;8.034;2023-06-24T15:44:55;2.92;;;1.90;;
32876;SDS011;19226;51.600;8.034;2023-06-24T15:47:39;2.03;;;1.80;;
32876;SDS011;19226;51.600;8.034;2023-06-24T15:50:25;4.40;;;2.10;;
32876;SDS011;19226;51.600;8.034;2023-06-24T15:53:09;2.50;;;2.30;;
32876;SDS011;19226;51.600;8.034;2023-06-24T15:55:54;2.28;;;2.08;;
32876;SDS011;19226;51.600;8.034;2023-06-24T15:58:38;3.90;;;2.00;;
32876;SDS011;19226;51.600;8.034;2023-06-24T16:01:23;3.25;;;2.20;;
32876;SDS011;19226;51.600;8.034;2023-06-24T16:04:08;2.95;;;1.80;;
32876;SDS011;19226;51.600;8.034;2023-06-24T16:06:53;5.97;;;1.85;;
32876;SDS011;19226;51.600;8.034;2023-06-24T16:09:38;2.30;;;2.10;;
32876;SDS011;19226;51.600;8.034;2023-06-24T16:12:23;2.63;;;2.42;;
32876;SDS011;19226;51.600;8.034;2023-06-24T16:15:07;1.83;;;1.73;;
32876;SDS011;19226;51.600;8.034;2023-06-24T16:17:52;3.63;;;1.63;;
32876;SDS011;19226;51.600;8.034;2023-06-24T16:20:37;5.57;;;2.20;;
32876;SDS011;19226;51.600;8.034;2023-06-24T16:23:21;2.40;;;2.20;;
32876;SDS011;19226;51.600;8.034;2023-06-24T16:26:06;1.85;;;1.75;;
32876;SDS011;19226;51.600;8.034;2023-06-24T16:28:50;4.65;;;2.20;;
32876;SDS011;19226;51.600;8.034;2023-06-24T16:31:35;2.35;;;2.13;;
32876;SDS011;19226;51.600;8.034;2023-06-24T16:34:19;2.85;;;2.13;;
32876;SDS011;19226;51.600;8.034;2023-06-24T16:37:04;5.38;;;2.67;;
32876;SDS011;19226;51.600;8.034;2023-06-24T16:39:48;2.10;;;1.90;;
32876;SDS011;19226;51.600;8.034;2023-06-24T16:42:33;4.88;;;2.03;;
32876;SDS011;19226;51.600;8.034;2023-06-24T16:45:17;2.20;;;2.00;;
32876;SDS011;19226;51.600;8.034;2023-06-24T16:48:02;2.30;;;2.10;;
32876;SDS011;19226;51.600;8.034;2023-06-24T16:50:47;2.55;;;2.35;;
32876;SDS011;19226;51.600;8.034;2023-06-24T16:53:31;2.90;;;2.03;;
32876;SDS011;19226;51.600;8.034;2023-06-24T16:56:16;5.35;;;2.40;;